sensor_id;sensor_type;location;lat;lon;timestamp;temperature;humidity
51982;DHT22;37998;53.416;6.730;2023-04-19T00:01:52;9.10;99.90
51982;DHT22;37998;53.416;6.730;2023-04-19T00:04:18;9.10;99.90
51982;DHT22;37998;53.416;6.730;2023-04-19T00:06:45;9.00;99.90
51982;DHT22;37998;53.416;6.730;2023-04-19T00:09:12;9.00;99.90
51982;DHT22;37998;53.416;6.730;2023-04-19T00:11:38;9.00;99.90
51982;DHT22;37998;53.416;6.730;2023-04-19T00:14:04;9.00;99.90
51982;DHT22;37998;53.416;6.730;2023-04-19T00:16:30;8.90;99.90
51982;DHT22;37998;53.416;6.730;2023-04-19T00:18:56;8.90;99.90
51982;DHT22;37998;53.416;6.730;2023-04-19T00:21:22;8.80;99.90
51982;DHT22;37998;53.416;6.730;2023-04-19T00:23:47;8.80;99.90
51982;DHT22;37998;53.416;6.730;2023-04-19T00:26:13;8.70;99.90
51982;DHT22;37998;53.416;6.730;2023-04-19T00:28:42;8.70;99.90
51982;DHT22;37998;53.416;6.730;2023-04-19T00:31:08;8.70;99.90
51982;DHT22;37998;53.416;6.730;2023-04-19T00:33:34;8.70;99.90
51982;DHT22;37998;53.416;6.730;2023-04-19T00:36:00;8.60;99.90
51982;DHT22;37998;53.416;6.730;2023-04-19T00:38:26;8.60;99.90
51982;DHT22;37998;53.416;6.730;2023-04-19T00:40:52;8.60;99.90
51982;DHT22;37998;53.416;6.730;2023-04-19T00:43:18;8.60;99.90
51982;DHT22;37998;53.416;6.730;2023-04-19T00:45:44;8.60;99.90
51982;DHT22;37998;53.416;6.730;2023-04-19T00:48:12;8.60;99.90
51982;DHT22;37998;53.416;6.730;2023-04-19T00:50:38;8.60;99.90
51982;DHT22;37998;53.416;6.730;2023-04-19T00:53:06;8.60;99.90
51982;DHT22;37998;53.416;6.730;2023-04-19T00:55:32;8.60;99.90
51982;DHT22;37998;53.416;6.730;2023-04-19T00:57:58;8.50;99.90
51982;DHT22;37998;53.416;6.730;2023-04-19T01:00:25;8.50;99.90
51982;DHT22;37998;53.416;6.730;2023-04-19T01:02:50;8.50;99.90
51982;DHT22;37998;53.416;6.730;2023-04-19T01:05:18;8.50;99.90
51982;DHT22;37998;53.416;6.730;2023-04-19T01:07:44;8.50;99.90
51982;DHT22;37998;53.416;6.730;2023-04-19T01:10:14;8.40;99.90
51982;DHT22;37998;53.416;6.730;2023-04-19T01:12:40;8.40;99.90
51982;DHT22;37998;53.416;6.730;2023-04-19T01:15:06;8.40;99.90
51982;DHT22;37998;53.416;6.730;2023-04-19T01:17:33;8.40;99.90
51982;DHT22;37998;53.416;6.730;2023-04-19T01:20:00;8.40;99.90
51982;DHT22;37998;53.416;6.730;2023-04-19T01:22:26;8.30;99.90
51982;DHT22;37998;53.416;6.730;2023-04-19T01:24:53;8.30;99.90
51982;DHT22;37998;53.416;6.730;2023-04-19T01:27:18;8.30;99.90
51982;DHT22;37998;53.416;6.730;2023-04-19T01:29:44;8.40;99.90
51982;DHT22;37998;53.416;6.730;2023-04-19T01:32:10;8.30;99.90
51982;DHT22;37998;53.416;6.730;2023-04-19T01:34:39;8.30;99.90
51982;DHT22;37998;53.416;6.730;2023-04-19T01:37:05;8.30;99.90
51982;DHT22;37998;53.416;6.730;2023-04-19T01:39:33;8.20;99.90
51982;DHT22;37998;53.416;6.730;2023-04-19T01:41:59;8.30;99.90
51982;DHT22;37998;53.416;6.730;2023-04-19T01:44:26;8.20;99.90
51982;DHT22;37998;53.416;6.730;2023-04-19T01:46:52;8.20;99.90
51982;DHT22;37998;53.416;6.730;2023-04-19T01:49:18;8.20;99.90
51982;DHT22;37998;53.416;6.730;2023-04-19T01:51:45;8.10;99.90
51982;DHT22;37998;53.416;6.730;2023-04-19T01:54:11;8.10;99.90
51982;DHT22;37998;53.416;6.730;2023-04-19T01:56:37;8.10;99.90
51982;DHT22;37998;53.416;6.730;2023-04-19T01:59:02;8.10;99.90
51982;DHT22;37998;53.416;6.730;2023-04-19T02:01:30;8.10;99.90
51982;DHT22;37998;53.416;6.730;2023-04-19T02:03:57;8.00;99.90
51982;DHT22;37998;53.416;6.730;2023-04-19T02:06:23;8.00;99.90
51982;DHT22;37998;53.416;6.730;2023-04-19T02:08:49;8.00;99.90
51982;DHT22;37998;53.416;6.730;2023-04-19T02:11:15;7.90;99.90
51982;DHT22;37998;53.416;6.730;2023-04-19T02:13:41;7.90;99.90
51982;DHT22;37998;53.416;6.730;2023-04-19T02:16:08;7.90;99.90
51982;DHT22;37998;53.416;6.730;2023-04-19T02:18:35;7.80;99.90
51982;DHT22;37998;53.416;6.730;2023-04-19T02:21:04;7.80;99.90
51982;DHT22;37998;53.416;6.730;2023-04-19T02:23:30;7.80;99.90
51982;DHT22;37998;53.416;6.730;2023-04-19T02:25:56;7.80;99.90
51982;DHT22;37998;53.416;6.730;2023-04-19T02:28:22;7.70;99.90
51982;DHT22;37998;53.416;6.730;2023-04-19T02:30:48;7.70;99.90
51982;DHT22;37998;53.416;6.730;2023-04-19T02:33:14;7.70;99.90
51982;DHT22;37998;53.416;6.730;2023-04-19T02:35:40;7.70;99.90
51982;DHT22;37998;53.416;6.730;2023-04-19T02:38:06;7.70;99.90
51982;DHT22;37998;53.416;6.730;2023-04-19T02:40:32;7.60;99.90
51982;DHT22;37998;53.416;6.730;2023-04-19T02:42:58;7.60;99.90
51982;DHT22;37998;53.416;6.730;2023-04-19T02:45:24;7.70;99.90
51982;DHT22;37998;53.416;6.730;2023-04-19T02:47:53;7.60;99.90
51982;DHT22;37998;53.416;6.730;2023-04-19T02:50:19;7.60;99.90
51982;DHT22;37998;53.416;6.730;2023-04-19T02:52:48;7.60;99.90
51982;DHT22;37998;53.416;6.730;2023-04-19T02:55:14;7.50;99.90
51982;DHT22;37998;53.416;6.730;2023-04-19T02:57:40;7.60;99.90
51982;DHT22;37998;53.416;6.730;2023-04-19T03:00:09;7.50;99.90
51982;DHT22;37998;53.416;6.730;2023-04-19T03:02:37;7.50;99.90
51982;DHT22;37998;53.416;6.730;2023-04-19T03:05:05;7.50;99.90
51982;DHT22;37998;53.416;6.730;2023-04-19T03:07:31;7.50;99.90
51982;DHT22;37998;53.416;6.730;2023-04-19T03:09:57;7.50;99.90
51982;DHT22;37998;53.416;6.730;2023-04-19T03:12:24;7.50;99.90
51982;DHT22;37998;53.416;6.730;2023-04-19T03:14:50;7.40;99.90
51982;DHT22;37998;53.416;6.730;2023-04-19T03:17:16;7.50;99.90
51982;DHT22;37998;53.416;6.730;2023-04-19T03:19:43;7.40;99.90
51982;DHT22;37998;53.416;6.730;2023-04-19T03:22:09;7.40;99.90
51982;DHT22;37998;53.416;6.730;2023-04-19T03:24:35;7.40;99.90
51982;DHT22;37998;53.416;6.730;2023-04-19T03:27:14;7.30;99.90
51982;DHT22;37998;53.416;6.730;2023-04-19T03:29:41;7.30;99.90
51982;DHT22;37998;53.416;6.730;2023-04-19T03:32:10;7.30;99.90
51982;DHT22;37998;53.416;6.730;2023-04-19T03:34:35;7.20;99.90
51982;DHT22;37998;53.416;6.730;2023-04-19T03:37:01;7.20;99.90
51982;DHT22;37998;53.416;6.730;2023-04-19T03:39:29;8.40;99.90
51982;DHT22;37998;53.416;6.730;2023-04-19T03:42:00;7.10;99.90
51982;DHT22;37998;53.416;6.730;2023-04-19T03:44:50;7.10;99.90
51982;DHT22;37998;53.416;6.730;2023-04-19T03:47:17;7.10;99.90
51982;DHT22;37998;53.416;6.730;2023-04-19T03:49:47;7.10;99.90
51982;DHT22;37998;53.416;6.730;2023-04-19T03:52:13;7.10;99.90
51982;DHT22;37998;53.416;6.730;2023-04-19T03:54:39;7.10;99.90
51982;DHT22;37998;53.416;6.730;2023-04-19T03:57:10;7.10;99.90
51982;DHT22;37998;53.416;6.730;2023-04-19T03:59:39;7.10;99.90
51982;DHT22;37998;53.416;6.730;2023-04-19T04:02:05;7.10;99.90
51982;DHT22;37998;53.416;6.730;2023-04-19T04:04:32;7.10;99.90
51982;DHT22;37998;53.416;6.730;2023-04-19T04:06:59;7.00;99.90
51982;DHT22;37998;53.416;6.730;2023-04-19T04:09:25;7.00;99.90
51982;DHT22;37998;53.416;6.730;2023-04-19T04:11:51;7.00;99.90
51982;DHT22;37998;53.416;6.730;2023-04-19T04:14:17;7.00;99.90
51982;DHT22;37998;53.416;6.730;2023-04-19T04:16:43;7.00;99.90
51982;DHT22;37998;53.416;6.730;2023-04-19T04:19:08;7.10;99.90
51982;DHT22;37998;53.416;6.730;2023-04-19T04:21:39;7.00;99.90
51982;DHT22;37998;53.416;6.730;2023-04-19T04:24:06;7.00;99.90
51982;DHT22;37998;53.416;6.730;2023-04-19T04:26:42;7.00;99.90
51982;DHT22;37998;53.416;6.730;2023-04-19T04:29:29;7.10;99.90
51982;DHT22;37998;53.416;6.730;2023-04-19T04:31:58;6.90;99.90
51982;DHT22;37998;53.416;6.730;2023-04-19T04:34:31;6.90;99.90
51982;DHT22;37998;53.416;6.730;2023-04-19T04:37:05;6.90;99.90
51982;DHT22;37998;53.416;6.730;2023-04-19T04:39:32;6.90;99.90
51982;DHT22;37998;53.416;6.730;2023-04-19T04:42:07;7.00;99.90
51982;DHT22;37998;53.416;6.730;2023-04-19T04:44:36;6.90;99.90
51982;DHT22;37998;53.416;6.730;2023-04-19T04:47:04;7.00;99.90
51982;DHT22;37998;53.416;6.730;2023-04-19T04:49:35;6.90;99.90
51982;DHT22;37998;53.416;6.730;2023-04-19T04:52:02;6.90;99.90
51982;DHT22;37998;53.416;6.730;2023-04-19T04:54:32;6.90;99.90
51982;DHT22;37998;53.416;6.730;2023-04-19T04:56:58;6.90;99.90
51982;DHT22;37998;53.416;6.730;2023-04-19T04:59:25;7.00;99.90
51982;DHT22;37998;53.416;6.730;2023-04-19T05:01:51;7.00;99.90
51982;DHT22;37998;53.416;6.730;2023-04-19T05:04:19;7.00;99.90
51982;DHT22;37998;53.416;6.730;2023-04-19T05:06:44;7.00;99.90
51982;DHT22;37998;53.416;6.730;2023-04-19T05:09:13;7.10;99.90
51982;DHT22;37998;53.416;6.730;2023-04-19T05:11:39;7.00;99.90
51982;DHT22;37998;53.416;6.730;2023-04-19T05:14:05;7.00;99.90
51982;DHT22;37998;53.416;6.730;2023-04-19T05:16:32;7.00;99.90
51982;DHT22;37998;53.416;6.730;2023-04-19T05:18:59;7.10;99.90
51982;DHT22;37998;53.416;6.730;2023-04-19T05:21:28;7.10;99.90
51982;DHT22;37998;53.416;6.730;2023-04-19T05:23:55;7.10;99.90
51982;DHT22;37998;53.416;6.730;2023-04-19T05:26:22;7.10;99.90
51982;DHT22;37998;53.416;6.730;2023-04-19T05:28:49;7.10;99.90
51982;DHT22;37998;53.416;6.730;2023-04-19T05:31:31;7.10;99.90
51982;DHT22;37998;53.416;6.730;2023-04-19T05:34:26;7.20;99.90
51982;DHT22;37998;53.416;6.730;2023-04-19T05:36:54;7.20;99.90
51982;DHT22;37998;53.416;6.730;2023-04-19T05:39:20;7.20;99.90
51982;DHT22;37998;53.416;6.730;2023-04-19T05:41:47;7.30;99.90
51982;DHT22;37998;53.416;6.730;2023-04-19T05:44:12;7.30;99.90
51982;DHT22;37998;53.416;6.730;2023-04-19T05:46:38;7.30;99.90
51982;DHT22;37998;53.416;6.730;2023-04-19T05:49:07;7.40;99.90
51982;DHT22;37998;53.416;6.730;2023-04-19T05:51:51;7.40;99.90
51982;DHT22;37998;53.416;6.730;2023-04-19T05:54:40;7.40;99.90
51982;DHT22;37998;53.416;6.730;2023-04-19T05:57:05;7.50;99.90
51982;DHT22;37998;53.416;6.730;2023-04-19T05:59:31;7.70;99.90
51982;DHT22;37998;53.416;6.730;2023-04-19T06:01:58;7.60;99.90
51982;DHT22;37998;53.416;6.730;2023-04-19T06:04:24;7.60;99.90
51982;DHT22;37998;53.416;6.730;2023-04-19T06:06:50;7.60;99.90
51982;DHT22;37998;53.416;6.730;2023-04-19T06:09:16;7.70;99.90
51982;DHT22;37998;53.416;6.730;2023-04-19T06:11:44;7.80;99.90
51982;DHT22;37998;53.416;6.730;2023-04-19T06:14:10;7.80;99.90
51982;DHT22;37998;53.416;6.730;2023-04-19T06:16:38;7.90;99.90
51982;DHT22;37998;53.416;6.730;2023-04-19T06:19:05;7.90;99.90
51982;DHT22;37998;53.416;6.730;2023-04-19T06:21:33;7.90;99.90
51982;DHT22;37998;53.416;6.730;2023-04-19T06:23:59;7.90;99.90
51982;DHT22;37998;53.416;6.730;2023-04-19T06:26:25;7.90;99.90
51982;DHT22;37998;53.416;6.730;2023-04-19T06:28:51;8.00;99.90
51982;DHT22;37998;53.416;6.730;2023-04-19T06:31:17;8.00;99.90
51982;DHT22;37998;53.416;6.730;2023-04-19T06:33:43;8.20;99.90
51982;DHT22;37998;53.416;6.730;2023-04-19T06:36:09;8.10;99.90
51982;DHT22;37998;53.416;6.730;2023-04-19T06:38:35;8.10;99.90
51982;DHT22;37998;53.416;6.730;2023-04-19T06:41:03;8.20;99.90
51982;DHT22;37998;53.416;6.730;2023-04-19T06:43:29;8.20;99.90
51982;DHT22;37998;53.416;6.730;2023-04-19T06:45:59;8.30;99.90
51982;DHT22;37998;53.416;6.730;2023-04-19T06:48:25;8.40;99.90
51982;DHT22;37998;53.416;6.730;2023-04-19T06:50:52;8.40;99.90
51982;DHT22;37998;53.416;6.730;2023-04-19T06:53:19;8.50;99.90
51982;DHT22;37998;53.416;6.730;2023-04-19T06:55:45;8.60;99.90
51982;DHT22;37998;53.416;6.730;2023-04-19T06:58:11;8.60;99.90
51982;DHT22;37998;53.416;6.730;2023-04-19T07:00:37;8.60;99.90
51982;DHT22;37998;53.416;6.730;2023-04-19T07:03:03;8.60;99.90
51982;DHT22;37998;53.416;6.730;2023-04-19T07:05:30;8.70;99.90
51982;DHT22;37998;53.416;6.730;2023-04-19T07:07:57;8.80;99.90
51982;DHT22;37998;53.416;6.730;2023-04-19T07:10:23;8.90;99.90
51982;DHT22;37998;53.416;6.730;2023-04-19T07:12:49;8.90;99.90
51982;DHT22;37998;53.416;6.730;2023-04-19T07:15:15;9.00;99.90
51982;DHT22;37998;53.416;6.730;2023-04-19T07:17:41;9.00;99.90
51982;DHT22;37998;53.416;6.730;2023-04-19T07:20:07;9.10;99.90
51982;DHT22;37998;53.416;6.730;2023-04-19T07:22:34;9.20;99.90
51982;DHT22;37998;53.416;6.730;2023-04-19T07:25:00;9.20;99.90
51982;DHT22;37998;53.416;6.730;2023-04-19T07:27:26;9.30;99.90
51982;DHT22;37998;53.416;6.730;2023-04-19T07:29:52;9.30;99.90
51982;DHT22;37998;53.416;6.730;2023-04-19T07:32:18;9.60;99.90
51982;DHT22;37998;53.416;6.730;2023-04-19T07:34:44;9.80;99.90
51982;DHT22;37998;53.416;6.730;2023-04-19T07:37:11;9.90;99.90
51982;DHT22;37998;53.416;6.730;2023-04-19T07:39:37;9.90;99.80
51982;DHT22;37998;53.416;6.730;2023-04-19T07:42:03;10.00;99.80
51982;DHT22;37998;53.416;6.730;2023-04-19T07:44:30;10.00;99.60
51982;DHT22;37998;53.416;6.730;2023-04-19T07:46:55;10.10;99.50
51982;DHT22;37998;53.416;6.730;2023-04-19T07:49:21;10.10;99.40
51982;DHT22;37998;53.416;6.730;2023-04-19T07:51:47;10.20;99.20
51982;DHT22;37998;53.416;6.730;2023-04-19T07:54:14;10.20;99.10
51982;DHT22;37998;53.416;6.730;2023-04-19T07:56:41;10.30;99.00
51982;DHT22;37998;53.416;6.730;2023-04-19T07:59:07;10.40;98.70
51982;DHT22;37998;53.416;6.730;2023-04-19T08:01:33;10.40;98.40
51982;DHT22;37998;53.416;6.730;2023-04-19T08:03:58;10.50;98.10
51982;DHT22;37998;53.416;6.730;2023-04-19T08:06:25;10.40;97.80
51982;DHT22;37998;53.416;6.730;2023-04-19T08:08:51;10.50;97.70
51982;DHT22;37998;53.416;6.730;2023-04-19T08:11:17;10.50;97.50
51982;DHT22;37998;53.416;6.730;2023-04-19T08:13:43;10.70;97.70
51982;DHT22;37998;53.416;6.730;2023-04-19T08:16:09;10.90;97.60
51982;DHT22;37998;53.416;6.730;2023-04-19T08:18:35;11.00;97.30
51982;DHT22;37998;53.416;6.730;2023-04-19T08:21:01;11.10;96.50
51982;DHT22;37998;53.416;6.730;2023-04-19T08:23:27;11.30;96.40
51982;DHT22;37998;53.416;6.730;2023-04-19T08:25:53;11.50;96.00
51982;DHT22;37998;53.416;6.730;2023-04-19T08:28:19;11.70;95.50
51982;DHT22;37998;53.416;6.730;2023-04-19T08:30:45;12.00;95.20
51982;DHT22;37998;53.416;6.730;2023-04-19T08:33:11;12.30;94.90
51982;DHT22;37998;53.416;6.730;2023-04-19T08:35:37;12.30;94.00
51982;DHT22;37998;53.416;6.730;2023-04-19T08:38:05;12.10;93.40
51982;DHT22;37998;53.416;6.730;2023-04-19T08:40:32;12.00;93.20
51982;DHT22;37998;53.416;6.730;2023-04-19T08:42:58;11.90;93.60
51982;DHT22;37998;53.416;6.730;2023-04-19T08:45:27;11.90;93.60
51982;DHT22;37998;53.416;6.730;2023-04-19T08:47:56;12.00;93.60
51982;DHT22;37998;53.416;6.730;2023-04-19T08:50:23;12.00;93.60
51982;DHT22;37998;53.416;6.730;2023-04-19T08:52:50;12.00;93.60
51982;DHT22;37998;53.416;6.730;2023-04-19T08:55:16;12.00;93.50
51982;DHT22;37998;53.416;6.730;2023-04-19T08:57:42;12.00;93.40
51982;DHT22;37998;53.416;6.730;2023-04-19T09:00:08;12.00;93.50
51982;DHT22;37998;53.416;6.730;2023-04-19T09:02:50;12.00;93.70
51982;DHT22;37998;53.416;6.730;2023-04-19T09:05:17;12.00;93.20
51982;DHT22;37998;53.416;6.730;2023-04-19T09:07:45;11.90;93.10
51982;DHT22;37998;53.416;6.730;2023-04-19T09:10:19;12.00;93.50
51982;DHT22;37998;53.416;6.730;2023-04-19T09:13:04;12.00;94.00
51982;DHT22;37998;53.416;6.730;2023-04-19T09:15:38;12.20;94.20
51982;DHT22;37998;53.416;6.730;2023-04-19T09:18:07;12.20;93.40
51982;DHT22;37998;53.416;6.730;2023-04-19T09:20:41;12.30;93.00
51982;DHT22;37998;53.416;6.730;2023-04-19T09:23:10;12.20;93.10
51982;DHT22;37998;53.416;6.730;2023-04-19T09:25:39;12.20;92.50
51982;DHT22;37998;53.416;6.730;2023-04-19T09:28:15;12.30;92.30
51982;DHT22;37998;53.416;6.730;2023-04-19T09:30:41;12.40;92.60
51982;DHT22;37998;53.416;6.730;2023-04-19T09:33:07;12.50;91.90
51982;DHT22;37998;53.416;6.730;2023-04-19T09:35:44;12.70;92.20
51982;DHT22;37998;53.416;6.730;2023-04-19T09:38:13;12.70;91.50
51982;DHT22;37998;53.416;6.730;2023-04-19T09:40:39;12.60;91.20
51982;DHT22;37998;53.416;6.730;2023-04-19T09:43:06;12.60;91.10
51982;DHT22;37998;53.416;6.730;2023-04-19T09:45:42;12.60;90.00
51982;DHT22;37998;53.416;6.730;2023-04-19T09:48:09;12.60;87.80
51982;DHT22;37998;53.416;6.730;2023-04-19T09:50:36;12.60;88.40
51982;DHT22;37998;53.416;6.730;2023-04-19T09:53:15;12.70;87.40
51982;DHT22;37998;53.416;6.730;2023-04-19T09:55:42;12.80;86.90
51982;DHT22;37998;53.416;6.730;2023-04-19T09:58:08;12.80;87.10
51982;DHT22;37998;53.416;6.730;2023-04-19T10:00:34;13.00;87.40
51982;DHT22;37998;53.416;6.730;2023-04-19T10:03:01;13.00;85.40
51982;DHT22;37998;53.416;6.730;2023-04-19T10:05:28;12.90;85.00
51982;DHT22;37998;53.416;6.730;2023-04-19T10:07:54;13.00;86.30
51982;DHT22;37998;53.416;6.730;2023-04-19T10:10:24;12.90;86.70
51982;DHT22;37998;53.416;6.730;2023-04-19T10:12:52;13.00;88.10
51982;DHT22;37998;53.416;6.730;2023-04-19T10:15:20;13.10;88.20
51982;DHT22;37998;53.416;6.730;2023-04-19T10:17:47;13.10;86.50
51982;DHT22;37998;53.416;6.730;2023-04-19T10:20:21;13.10;87.90
51982;DHT22;37998;53.416;6.730;2023-04-19T10:22:48;12.90;91.40
51982;DHT22;37998;53.416;6.730;2023-04-19T10:25:15;12.80;91.80
51982;DHT22;37998;53.416;6.730;2023-04-19T10:27:43;12.70;92.80
51982;DHT22;37998;53.416;6.730;2023-04-19T10:30:29;12.60;93.00
51982;DHT22;37998;53.416;6.730;2023-04-19T10:32:57;12.60;93.50
51982;DHT22;37998;53.416;6.730;2023-04-19T10:35:39;12.60;94.00
51982;DHT22;37998;53.416;6.730;2023-04-19T10:38:11;12.60;94.40
51982;DHT22;37998;53.416;6.730;2023-04-19T10:40:58;12.70;94.50
51982;DHT22;37998;53.416;6.730;2023-04-19T10:48:33;12.60;94.10
51982;DHT22;37998;53.416;6.730;2023-04-19T10:53:58;12.60;95.00
51982;DHT22;37998;53.416;6.730;2023-04-19T11:01:56;12.30;95.40
51982;DHT22;37998;53.416;6.730;2023-04-19T11:06:59;12.20;95.50
51982;DHT22;37998;53.416;6.730;2023-04-19T11:09:34;12.20;96.20
51982;DHT22;37998;53.416;6.730;2023-04-19T11:12:04;12.20;96.70
51982;DHT22;37998;53.416;6.730;2023-04-19T11:14:47;12.30;97.60
51982;DHT22;37998;53.416;6.730;2023-04-19T11:25:20;12.20;97.30
51982;DHT22;37998;53.416;6.730;2023-04-19T11:27:50;12.50;97.90
51982;DHT22;37998;53.416;6.730;2023-04-19T11:30:27;12.50;97.80
51982;DHT22;37998;53.416;6.730;2023-04-19T11:32:54;12.40;97.20
51982;DHT22;37998;53.416;6.730;2023-04-19T11:35:25;12.30;97.40
51982;DHT22;37998;53.416;6.730;2023-04-19T11:37:52;12.30;97.20
51982;DHT22;37998;53.416;6.730;2023-04-19T11:40:20;12.20;97.10
51982;DHT22;37998;53.416;6.730;2023-04-19T11:42:56;12.30;97.20
51982;DHT22;37998;53.416;6.730;2023-04-19T11:45:30;12.30;97.20
51982;DHT22;37998;53.416;6.730;2023-04-19T11:47:56;12.30;97.20
51982;DHT22;37998;53.416;6.730;2023-04-19T11:50:41;12.30;97.30
51982;DHT22;37998;53.416;6.730;2023-04-19T11:55:43;12.50;97.90
51982;DHT22;37998;53.416;6.730;2023-04-19T12:03:43;12.40;98.40
51982;DHT22;37998;53.416;6.730;2023-04-19T12:06:11;12.40;98.80
51982;DHT22;37998;53.416;6.730;2023-04-19T12:08:41;12.40;99.10
51982;DHT22;37998;53.416;6.730;2023-04-19T12:11:07;12.40;98.90
51982;DHT22;37998;53.416;6.730;2023-04-19T12:13:34;12.30;98.60
51982;DHT22;37998;53.416;6.730;2023-04-19T12:16:01;12.40;99.40
51982;DHT22;37998;53.416;6.730;2023-04-19T12:18:50;12.40;98.70
51982;DHT22;37998;53.416;6.730;2023-04-19T12:21:30;12.40;98.00
51982;DHT22;37998;53.416;6.730;2023-04-19T12:23:59;12.40;98.60
51982;DHT22;37998;53.416;6.730;2023-04-19T12:26:26;12.20;97.80
51982;DHT22;37998;53.416;6.730;2023-04-19T12:28:54;12.30;98.00
51982;DHT22;37998;53.416;6.730;2023-04-19T12:31:20;12.30;98.60
51982;DHT22;37998;53.416;6.730;2023-04-19T12:33:46;12.30;98.30
51982;DHT22;37998;53.416;6.730;2023-04-19T12:36:12;12.30;98.50
51982;DHT22;37998;53.416;6.730;2023-04-19T12:38:38;12.40;98.40
51982;DHT22;37998;53.416;6.730;2023-04-19T12:41:04;12.30;98.60
51982;DHT22;37998;53.416;6.730;2023-04-19T12:43:31;12.40;99.00
51982;DHT22;37998;53.416;6.730;2023-04-19T12:45:58;12.40;99.20
51982;DHT22;37998;53.416;6.730;2023-04-19T12:48:27;12.40;99.70
51982;DHT22;37998;53.416;6.730;2023-04-19T12:50:53;12.40;99.20
51982;DHT22;37998;53.416;6.730;2023-04-19T12:53:20;12.40;99.00
51982;DHT22;37998;53.416;6.730;2023-04-19T12:55:47;12.40;98.00
51982;DHT22;37998;53.416;6.730;2023-04-19T12:58:17;12.40;98.20
51982;DHT22;37998;53.416;6.730;2023-04-19T13:00:44;12.40;99.00
51982;DHT22;37998;53.416;6.730;2023-04-19T13:03:10;12.30;98.90
51982;DHT22;37998;53.416;6.730;2023-04-19T13:05:37;12.10;99.20
51982;DHT22;37998;53.416;6.730;2023-04-19T13:08:03;12.30;99.30
51982;DHT22;37998;53.416;6.730;2023-04-19T13:10:29;12.40;99.00
51982;DHT22;37998;53.416;6.730;2023-04-19T13:12:55;12.50;99.50
51982;DHT22;37998;53.416;6.730;2023-04-19T13:15:21;12.50;99.30
51982;DHT22;37998;53.416;6.730;2023-04-19T13:17:47;12.70;99.00
51982;DHT22;37998;53.416;6.730;2023-04-19T13:20:13;12.60;97.70
51982;DHT22;37998;53.416;6.730;2023-04-19T13:22:39;12.50;98.40
51982;DHT22;37998;53.416;6.730;2023-04-19T13:25:05;12.50;98.20
51982;DHT22;37998;53.416;6.730;2023-04-19T13:27:31;12.40;98.70
51982;DHT22;37998;53.416;6.730;2023-04-19T13:29:57;12.40;99.00
51982;DHT22;37998;53.416;6.730;2023-04-19T13:32:23;12.40;99.20
51982;DHT22;37998;53.416;6.730;2023-04-19T13:34:50;12.20;99.30
51982;DHT22;37998;53.416;6.730;2023-04-19T13:37:16;12.30;99.70
51982;DHT22;37998;53.416;6.730;2023-04-19T13:39:42;12.20;99.90
51982;DHT22;37998;53.416;6.730;2023-04-19T13:42:08;12.30;99.90
51982;DHT22;37998;53.416;6.730;2023-04-19T13:44:34;12.30;99.80
51982;DHT22;37998;53.416;6.730;2023-04-19T13:47:00;12.20;98.90
51982;DHT22;37998;53.416;6.730;2023-04-19T13:49:26;12.20;99.40
51982;DHT22;37998;53.416;6.730;2023-04-19T13:51:52;12.20;99.90
51982;DHT22;37998;53.416;6.730;2023-04-19T13:54:18;12.30;99.50
51982;DHT22;37998;53.416;6.730;2023-04-19T13:56:44;12.20;99.70
51982;DHT22;37998;53.416;6.730;2023-04-19T13:59:10;12.30;99.90
51982;DHT22;37998;53.416;6.730;2023-04-19T14:01:36;12.30;99.80
51982;DHT22;37998;53.416;6.730;2023-04-19T14:04:02;12.20;99.60
51982;DHT22;37998;53.416;6.730;2023-04-19T14:06:28;12.20;99.50
51982;DHT22;37998;53.416;6.730;2023-04-19T14:08:53;12.10;99.50
51982;DHT22;37998;53.416;6.730;2023-04-19T14:11:26;12.10;99.60
51982;DHT22;37998;53.416;6.730;2023-04-19T14:13:52;12.20;99.90
51982;DHT22;37998;53.416;6.730;2023-04-19T14:16:19;12.20;98.80
51982;DHT22;37998;53.416;6.730;2023-04-19T14:18:45;12.20;99.00
51982;DHT22;37998;53.416;6.730;2023-04-19T14:21:11;12.20;99.40
51982;DHT22;37998;53.416;6.730;2023-04-19T14:23:37;12.20;98.90
51982;DHT22;37998;53.416;6.730;2023-04-19T14:26:03;12.20;97.70
51982;DHT22;37998;53.416;6.730;2023-04-19T14:28:28;12.30;97.70
51982;DHT22;37998;53.416;6.730;2023-04-19T14:30:54;12.30;97.00
51982;DHT22;37998;53.416;6.730;2023-04-19T14:33:20;12.30;97.50
51982;DHT22;37998;53.416;6.730;2023-04-19T14:35:46;12.30;96.40
51982;DHT22;37998;53.416;6.730;2023-04-19T14:38:12;12.30;96.00
51982;DHT22;37998;53.416;6.730;2023-04-19T14:40:38;12.30;96.30
51982;DHT22;37998;53.416;6.730;2023-04-19T14:43:04;12.40;96.20
51982;DHT22;37998;53.416;6.730;2023-04-19T14:45:30;12.30;95.40
51982;DHT22;37998;53.416;6.730;2023-04-19T14:47:56;12.30;95.80
51982;DHT22;37998;53.416;6.730;2023-04-19T14:50:22;12.20;96.10
51982;DHT22;37998;53.416;6.730;2023-04-19T14:52:48;12.30;96.20
51982;DHT22;37998;53.416;6.730;2023-04-19T14:55:14;12.30;96.40
51982;DHT22;37998;53.416;6.730;2023-04-19T14:57:39;12.30;95.80
51982;DHT22;37998;53.416;6.730;2023-04-19T15:00:06;12.30;96.50
51982;DHT22;37998;53.416;6.730;2023-04-19T15:02:32;12.20;97.30
51982;DHT22;37998;53.416;6.730;2023-04-19T15:04:58;12.20;97.20
51982;DHT22;37998;53.416;6.730;2023-04-19T15:07:24;12.30;97.70
51982;DHT22;37998;53.416;6.730;2023-04-19T15:09:51;12.30;96.70
51982;DHT22;37998;53.416;6.730;2023-04-19T15:12:16;12.30;96.70
51982;DHT22;37998;53.416;6.730;2023-04-19T15:14:42;12.30;96.60
51982;DHT22;37998;53.416;6.730;2023-04-19T15:17:08;12.30;97.00
51982;DHT22;37998;53.416;6.730;2023-04-19T15:19:34;12.30;96.90
51982;DHT22;37998;53.416;6.730;2023-04-19T15:22:00;12.30;97.40
51982;DHT22;37998;53.416;6.730;2023-04-19T15:24:28;12.10;98.00
51982;DHT22;37998;53.416;6.730;2023-04-19T15:26:54;12.30;98.40
51982;DHT22;37998;53.416;6.730;2023-04-19T15:29:21;12.30;98.20
51982;DHT22;37998;53.416;6.730;2023-04-19T15:31:47;12.30;98.60
51982;DHT22;37998;53.416;6.730;2023-04-19T15:34:13;12.30;99.10
51982;DHT22;37998;53.416;6.730;2023-04-19T15:36:38;12.30;98.60
51982;DHT22;37998;53.416;6.730;2023-04-19T15:39:05;12.20;99.20
51982;DHT22;37998;53.416;6.730;2023-04-19T15:41:32;12.20;99.50
51982;DHT22;37998;53.416;6.730;2023-04-19T15:43:58;12.20;99.60
51982;DHT22;37998;53.416;6.730;2023-04-19T15:46:24;12.20;99.30
51982;DHT22;37998;53.416;6.730;2023-04-19T15:48:49;12.10;99.20
51982;DHT22;37998;53.416;6.730;2023-04-19T15:51:15;12.10;99.90
51982;DHT22;37998;53.416;6.730;2023-04-19T15:53:41;12.20;99.90
51982;DHT22;37998;53.416;6.730;2023-04-19T15:56:07;12.20;99.90
51982;DHT22;37998;53.416;6.730;2023-04-19T15:58:33;12.20;99.90
51982;DHT22;37998;53.416;6.730;2023-04-19T16:00:59;12.30;99.90
51982;DHT22;37998;53.416;6.730;2023-04-19T16:03:26;12.30;99.70
51982;DHT22;37998;53.416;6.730;2023-04-19T16:05:53;12.20;99.70
51982;DHT22;37998;53.416;6.730;2023-04-19T16:08:20;12.30;99.90
51982;DHT22;37998;53.416;6.730;2023-04-19T16:10:46;12.20;99.70
51982;DHT22;37998;53.416;6.730;2023-04-19T16:13:13;12.20;99.70